createdAt,value
2017-08-18T00:01:26.427Z,96.60
2017-08-18T00:03:53.944Z,96.50
2017-08-18T00:06:21.472Z,97.10
2017-08-18T00:08:49.025Z,96.60
2017-08-18T00:11:16.586Z,96.60
2017-08-18T00:13:44.116Z,96.80
2017-08-18T00:16:11.643Z,96.70
2017-08-18T00:18:39.207Z,96.70
2017-08-18T00:21:06.729Z,96.40
2017-08-18T00:23:34.249Z,96.80
2017-08-18T00:26:01.804Z,97.10
2017-08-18T00:28:29.328Z,97.00
2017-08-18T00:30:56.897Z,96.60
2017-08-18T00:34:02.967Z,96.90
2017-08-18T00:36:30.517Z,96.90
2017-08-18T00:38:58.063Z,96.10
2017-08-18T00:41:25.632Z,97.10
2017-08-18T00:43:53.149Z,96.60
2017-08-18T00:46:20.733Z,96.40
2017-08-18T00:48:49.043Z,96.60
2017-08-18T00:51:16.653Z,96.50
2017-08-18T00:53:44.168Z,96.40
2017-08-18T00:56:11.720Z,97.10
2017-08-18T00:58:39.228Z,96.70
2017-08-18T01:01:06.745Z,97.00
2017-08-18T01:03:34.284Z,97.50
2017-08-18T01:06:01.825Z,97.20
2017-08-18T01:08:29.328Z,97.10
2017-08-18T01:10:56.840Z,97.70
2017-08-18T01:13:25.177Z,97.20
2017-08-18T01:15:52.703Z,97.10
2017-08-18T01:18:20.248Z,96.80
2017-08-18T01:20:48.571Z,96.90
2017-08-18T01:23:16.083Z,96.80
2017-08-18T01:25:44.388Z,97.30
2017-08-18T01:28:11.928Z,97.30
2017-08-18T01:30:39.506Z,97.40
2017-08-18T01:33:07.041Z,97.80
2017-08-18T01:35:35.311Z,97.70
2017-08-18T01:38:02.897Z,97.60
2017-08-18T01:40:30.417Z,98.30
2017-08-18T01:42:57.956Z,97.90
2017-08-18T01:45:25.455Z,98.20
2017-08-18T01:47:53.773Z,98.30
2017-08-18T01:50:21.300Z,98.30
2017-08-18T01:52:48.859Z,98.50
2017-08-18T01:55:17.143Z,98.80
2017-08-18T01:57:44.691Z,98.80
2017-08-18T02:00:13.001Z,97.80
2017-08-18T02:02:40.539Z,97.80
2017-08-18T02:05:08.081Z,97.70
2017-08-18T02:07:35.629Z,97.60
2017-08-18T02:10:03.955Z,97.70
2017-08-18T02:12:31.496Z,97.70
2017-08-18T02:14:59.797Z,97.50
2017-08-18T02:17:27.378Z,97.50
2017-08-18T02:19:54.899Z,97.50
2017-08-18T02:22:22.446Z,97.40
2017-08-18T02:24:50.783Z,97.50
2017-08-18T02:27:18.286Z,97.50
2017-08-18T02:29:46.568Z,96.80
2017-08-18T02:32:14.127Z,96.80
2017-08-18T02:34:42.561Z,97.00
2017-08-18T02:37:10.100Z,97.00
2017-08-18T02:39:37.610Z,97.10
2017-08-18T02:42:05.934Z,97.10
2017-08-18T02:44:33.471Z,97.00
2017-08-18T02:47:01.033Z,97.30
2017-08-18T02:49:28.584Z,97.50
2017-08-18T02:51:56.901Z,97.70
2017-08-18T02:54:24.474Z,97.80
2017-08-18T02:56:51.979Z,98.00
2017-08-18T02:59:20.265Z,97.90
2017-08-18T03:01:47.809Z,97.90
2017-08-18T03:04:16.216Z,97.80
2017-08-18T03:06:43.739Z,97.80
2017-08-18T03:09:11.292Z,98.00
2017-08-18T03:11:38.808Z,98.20
2017-08-18T03:14:06.323Z,98.20
2017-08-18T03:16:33.867Z,98.10
2017-08-18T03:19:01.405Z,98.20
2017-08-18T03:21:28.956Z,97.90
2017-08-18T03:23:56.501Z,98.00
2017-08-18T03:26:24.575Z,98.30
2017-08-18T03:28:52.122Z,98.40
2017-08-18T03:31:19.630Z,98.30
2017-08-18T03:33:47.152Z,98.60
2017-08-18T03:36:14.675Z,98.50
2017-08-18T03:38:43.025Z,98.10
2017-08-18T03:41:10.575Z,98.00
2017-08-18T03:43:38.088Z,98.50
2017-08-18T03:46:06.376Z,98.80
2017-08-18T03:48:33.936Z,98.80
2017-08-18T03:51:01.465Z,99.00
2017-08-18T03:53:28.983Z,99.20
2017-08-18T03:55:56.537Z,99.00
2017-08-18T03:58:24.049Z,98.90
2017-08-18T04:00:51.602Z,98.90
2017-08-18T04:03:19.151Z,99.10
2017-08-18T04:05:46.656Z,99.10
2017-08-18T04:08:14.176Z,99.10
2017-08-18T04:10:41.765Z,98.90
2017-08-18T04:13:10.058Z,99.20
2017-08-18T04:15:37.580Z,99.20
2017-08-18T04:18:05.116Z,99.00
2017-08-18T04:20:32.642Z,98.70
2017-08-18T04:23:00.164Z,98.40
2017-08-18T04:25:27.683Z,98.30
2017-08-18T04:27:55.247Z,98.90
2017-08-18T04:30:22.796Z,98.70
2017-08-18T04:32:50.340Z,98.60
2017-08-18T04:35:17.897Z,98.70
2017-08-18T04:37:45.410Z,98.80
2017-08-18T04:40:12.952Z,98.90
2017-08-18T04:42:40.503Z,98.70
2017-08-18T04:45:08.023Z,98.30
2017-08-18T04:47:35.602Z,98.30
2017-08-18T04:50:03.212Z,98.00
2017-08-18T04:52:30.732Z,97.90
2017-08-18T04:54:58.243Z,98.00
2017-08-18T04:57:25.786Z,97.90
2017-08-18T04:59:53.308Z,97.80
2017-08-18T05:02:20.857Z,97.50
2017-08-18T05:04:48.416Z,97.30
2017-08-18T05:07:15.940Z,97.00
2017-08-18T05:09:43.464Z,96.90
2017-08-18T05:12:11.003Z,97.00
2017-08-18T05:14:38.522Z,97.40
2017-08-18T05:17:06.081Z,97.10
2017-08-18T05:19:34.381Z,97.00
2017-08-18T05:22:01.891Z,96.90
2017-08-18T05:24:29.442Z,97.10
2017-08-18T05:26:57.030Z,97.00
2017-08-18T05:29:24.584Z,97.20
2017-08-18T05:31:52.097Z,96.80
2017-08-18T05:34:19.615Z,96.50
2017-08-18T05:36:47.174Z,95.90
2017-08-18T05:39:14.688Z,95.60
2017-08-18T05:41:42.249Z,95.40
2017-08-18T05:44:09.776Z,95.40
2017-08-18T05:46:37.300Z,95.20
2017-08-18T05:49:04.893Z,95.30
2017-08-18T05:51:33.233Z,95.50
2017-08-18T05:54:00.893Z,95.50
2017-08-18T05:56:28.416Z,95.20
2017-08-18T05:58:55.964Z,94.90
2017-08-18T06:01:23.513Z,94.60
2017-08-18T06:03:51.820Z,94.20
2017-08-18T06:06:19.374Z,94.20
2017-08-18T06:08:46.910Z,93.90
2017-08-18T06:11:15.184Z,93.80
2017-08-18T06:13:43.524Z,93.20
2017-08-18T06:16:11.035Z,93.10
2017-08-18T06:18:39.310Z,92.90
2017-08-18T06:21:07.617Z,92.80
2017-08-18T06:23:35.147Z,92.80
2017-08-18T06:26:03.472Z,92.40
2017-08-18T06:28:30.975Z,92.30
2017-08-18T06:30:59.247Z,92.20
2017-08-18T06:33:26.800Z,92.20
2017-08-18T06:35:55.087Z,91.20
2017-08-18T06:38:23.393Z,91.30
2017-08-18T06:40:50.940Z,91.00
2017-08-18T06:43:19.212Z,90.60
2017-08-18T06:45:47.563Z,90.50
2017-08-18T06:48:15.067Z,90.50
2017-08-18T06:50:42.573Z,91.20
2017-08-18T06:53:10.137Z,91.30
2017-08-18T06:55:37.647Z,90.80
2017-08-18T06:58:05.147Z,90.90
2017-08-18T07:00:32.739Z,90.50
2017-08-18T07:03:00.301Z,88.50
2017-08-18T07:05:28.632Z,86.80
2017-08-18T07:07:56.144Z,86.60
2017-08-18T07:10:24.425Z,80.80
2017-08-18T07:12:51.974Z,80.70
2017-08-18T07:15:19.511Z,83.10
2017-08-18T07:17:47.025Z,83.50
2017-08-18T07:20:14.619Z,84.10
2017-08-18T07:22:42.133Z,84.20
2017-08-18T07:25:09.680Z,82.20
2017-08-18T07:27:37.189Z,84.80
2017-08-18T07:30:04.693Z,85.20
2017-08-18T07:32:33.011Z,82.70
2017-08-18T07:35:00.539Z,83.00
2017-08-18T07:37:30.554Z,81.50
2017-08-18T07:39:58.855Z,81.50
2017-08-18T07:42:26.596Z,81.40
2017-08-18T07:44:54.875Z,80.90
2017-08-18T07:47:22.400Z,80.90
2017-08-18T07:49:50.011Z,82.40
2017-08-18T07:52:17.576Z,79.10
2017-08-18T07:54:45.116Z,75.00
2017-08-18T07:57:12.623Z,76.60
2017-08-18T07:59:40.162Z,78.10
2017-08-18T08:02:07.703Z,80.10
2017-08-18T08:04:35.983Z,73.50
2017-08-18T08:07:04.304Z,76.70
2017-08-18T08:09:31.808Z,76.70
2017-08-18T08:11:59.327Z,73.80
2017-08-18T08:14:26.901Z,75.10
2017-08-18T08:16:54.412Z,72.30
2017-08-18T08:19:21.925Z,71.10
2017-08-18T08:21:49.487Z,72.00
2017-08-18T08:24:16.993Z,70.40
2017-08-18T08:26:44.520Z,73.90
2017-08-18T08:29:12.060Z,69.50
2017-08-18T08:31:39.624Z,69.20
2017-08-18T08:34:07.132Z,69.50
2017-08-18T08:36:34.633Z,68.10
2017-08-18T08:39:02.180Z,69.50
2017-08-18T08:41:29.678Z,67.50
2017-08-18T08:43:57.227Z,70.90
2017-08-18T08:46:25.504Z,69.80
2017-08-18T08:48:53.017Z,68.30
2017-08-18T08:51:20.551Z,66.50
2017-08-18T08:53:48.859Z,74.60
2017-08-18T08:56:16.408Z,74.60
2017-08-18T08:58:43.907Z,73.50
2017-08-18T09:01:11.458Z,67.70
2017-08-18T09:03:38.958Z,66.80
2017-08-18T09:06:07.281Z,64.70
2017-08-18T09:08:34.800Z,64.60
2017-08-18T09:11:02.353Z,65.70
2017-08-18T09:13:30.659Z,64.70
2017-08-18T09:15:58.164Z,63.80
2017-08-18T09:18:25.712Z,63.00
2017-08-18T09:20:53.228Z,63.40
2017-08-18T09:23:20.802Z,65.30
2017-08-18T09:25:48.363Z,65.90
2017-08-18T09:28:15.867Z,64.80
2017-08-18T09:30:43.404Z,62.80
2017-08-18T09:33:10.907Z,61.10
2017-08-18T09:35:39.231Z,62.40
2017-08-18T09:38:06.751Z,62.40
2017-08-18T09:40:35.255Z,63.70
2017-08-18T09:43:02.817Z,63.40
2017-08-18T09:45:30.332Z,61.90
2017-08-18T09:48:09.700Z,63.90
2017-08-18T09:50:49.196Z,65.30
2017-08-18T09:53:28.527Z,63.00
2017-08-18T09:56:07.812Z,64.50
2017-08-18T09:58:47.011Z,62.50
2017-08-18T10:01:14.555Z,61.90
2017-08-18T10:03:42.080Z,59.30
2017-08-18T10:06:09.616Z,61.70
2017-08-18T10:08:37.165Z,62.70
2017-08-18T10:11:04.674Z,61.10
2017-08-18T10:13:32.187Z,65.00
2017-08-18T10:16:00.494Z,61.00
2017-08-18T10:18:28.016Z,61.00
2017-08-18T10:20:55.568Z,58.00
2017-08-18T10:23:23.116Z,61.50
2017-08-18T10:25:50.620Z,60.10
2017-08-18T10:28:18.127Z,60.00
2017-08-18T10:30:45.663Z,55.80
2017-08-18T10:33:13.167Z,55.00
2017-08-18T10:35:40.712Z,58.20
2017-08-18T10:38:08.227Z,58.90
2017-08-18T10:40:35.731Z,59.60
2017-08-18T10:43:03.285Z,61.10
2017-08-18T10:45:30.796Z,55.30
2017-08-18T10:47:58.300Z,55.80
2017-08-18T10:50:25.847Z,54.60
2017-08-18T10:52:53.355Z,56.80
2017-08-18T10:55:20.868Z,59.80
2017-08-18T10:57:48.426Z,61.20
2017-08-18T11:00:15.936Z,60.60
2017-08-18T11:02:43.440Z,56.20
2017-08-18T11:05:10.978Z,57.50
2017-08-18T11:07:38.488Z,60.30
2017-08-18T11:10:06.016Z,63.10
2017-08-18T11:12:33.552Z,60.00
2017-08-18T11:15:01.067Z,61.20
2017-08-18T11:17:28.649Z,60.50
2017-08-18T11:19:56.156Z,61.60
2017-08-18T11:22:23.658Z,60.40
2017-08-18T11:24:51.195Z,53.50
2017-08-18T11:27:18.695Z,59.40
2017-08-18T11:29:46.252Z,53.90
2017-08-18T11:32:13.760Z,58.00
2017-08-18T11:34:41.277Z,57.20
2017-08-18T11:37:09.599Z,58.10
2017-08-18T11:39:37.108Z,58.10
2017-08-18T11:42:04.616Z,56.20
2017-08-18T11:44:32.155Z,55.30
2017-08-18T11:46:59.663Z,51.40
2017-08-18T11:49:27.207Z,51.30
2017-08-18T11:51:54.768Z,55.10
2017-08-18T11:54:22.342Z,52.10
2017-08-18T11:56:49.852Z,51.30
2017-08-18T11:59:17.500Z,52.00
2017-08-18T12:01:45.772Z,52.30
2017-08-18T12:04:14.092Z,54.70
2017-08-18T12:06:41.632Z,54.70
2017-08-18T12:09:09.143Z,54.00
2017-08-18T12:11:36.712Z,52.70
2017-08-18T12:14:04.613Z,51.90
2017-08-18T12:16:32.123Z,50.30
2017-08-18T12:18:59.676Z,52.60
2017-08-18T12:21:27.192Z,52.80
2017-08-18T12:23:54.746Z,51.00
2017-08-18T12:26:22.257Z,52.10
2017-08-18T12:28:49.780Z,50.30
2017-08-18T12:31:17.326Z,50.40
2017-08-18T12:33:46.570Z,49.60
2017-08-18T12:36:14.083Z,49.50
2017-08-18T12:38:41.623Z,50.30
2017-08-18T12:41:09.168Z,51.30
2017-08-18T12:43:36.758Z,51.80
2017-08-18T12:46:04.268Z,53.10
2017-08-18T12:48:31.817Z,51.90
2017-08-18T12:50:59.367Z,55.30
2017-08-18T12:53:26.936Z,54.60
2017-08-18T12:55:54.444Z,50.30
2017-08-18T12:58:21.954Z,50.50
2017-08-18T13:00:49.504Z,49.10
2017-08-18T13:03:17.043Z,50.50
2017-08-18T13:05:45.311Z,53.80
2017-08-18T13:08:13.686Z,54.40
2017-08-18T13:10:41.197Z,54.40
2017-08-18T13:13:08.699Z,54.50
2017-08-18T13:15:36.272Z,57.00
2017-08-18T13:18:04.544Z,58.40
2017-08-18T13:20:32.055Z,58.40
2017-08-18T13:22:59.603Z,58.40
2017-08-18T13:25:27.119Z,58.30
2017-08-18T13:27:54.693Z,56.00
2017-08-18T13:30:23.012Z,56.20
2017-08-18T13:32:50.571Z,56.20
2017-08-18T13:35:18.113Z,55.00
2017-08-18T13:37:45.655Z,56.60
2017-08-18T13:40:13.948Z,56.30
2017-08-18T13:42:41.468Z,56.20
2017-08-18T13:45:09.003Z,57.20
2017-08-18T13:47:36.538Z,59.20
2017-08-18T13:50:04.064Z,59.50
2017-08-18T13:52:31.631Z,58.60
2017-08-18T13:54:59.183Z,56.90
2017-08-18T13:57:27.457Z,56.90
2017-08-18T13:59:55.003Z,56.50
2017-08-18T14:02:22.564Z,56.90
2017-08-18T14:04:50.072Z,58.60
2017-08-18T14:07:17.579Z,57.00
2017-08-18T14:09:45.122Z,57.50
2017-08-18T14:12:12.635Z,55.80
2017-08-18T14:14:40.191Z,56.30
2017-08-18T14:17:08.464Z,55.70
2017-08-18T14:19:36.735Z,56.20
2017-08-18T14:22:05.056Z,55.70
2017-08-18T14:24:32.611Z,55.50
2017-08-18T14:27:05.798Z,56.90
2017-08-18T14:29:33.344Z,58.20
2017-08-18T14:32:00.947Z,57.10
2017-08-18T14:34:28.656Z,56.30
2017-08-18T14:36:56.952Z,58.70
2017-08-18T14:39:24.494Z,58.70
2017-08-18T14:41:52.797Z,59.10
2017-08-18T14:44:20.459Z,59.10
2017-08-18T14:46:47.975Z,59.90
2017-08-18T14:49:15.485Z,59.80
2017-08-18T14:51:43.034Z,59.70
2017-08-18T14:54:10.589Z,59.20
2017-08-18T14:56:41.141Z,58.60
2017-08-18T14:59:10.033Z,57.70
2017-08-18T15:01:37.652Z,59.50
2017-08-18T15:04:05.197Z,58.90
2017-08-18T15:06:32.800Z,57.70
2017-08-18T15:09:00.375Z,57.50
2017-08-18T15:11:28.349Z,58.30
2017-08-18T15:13:56.609Z,59.30
2017-08-18T15:16:24.951Z,59.10
2017-08-18T15:18:52.588Z,59.10
2017-08-18T15:21:21.181Z,58.10
2017-08-18T15:23:48.792Z,58.10
2017-08-18T15:26:16.687Z,58.40
2017-08-18T15:31:21.737Z,60.10
2017-08-18T15:33:49.425Z,59.20
2017-08-18T15:42:21.698Z,60.30
2017-08-18T15:47:43.993Z,59.20
2017-08-18T15:50:24.770Z,59.50
2017-08-18T15:53:04.487Z,59.50
2017-08-18T15:55:41.009Z,59.80
2017-08-18T16:04:16.002Z,60.10
2017-08-18T16:06:43.613Z,60.30
2017-08-18T16:09:11.209Z,61.20
2017-08-18T16:11:39.506Z,60.10
2017-08-18T16:14:07.167Z,60.00
2017-08-18T16:16:34.693Z,60.70
2017-08-18T16:19:02.246Z,61.70
2017-08-18T16:21:29.801Z,61.10
2017-08-18T16:23:57.361Z,60.50
2017-08-18T16:26:24.919Z,62.20
2017-08-18T16:28:52.436Z,61.20
2017-08-18T16:31:19.998Z,62.40
2017-08-18T16:33:47.512Z,62.20
2017-08-18T16:36:15.038Z,62.60
2017-08-18T16:38:42.580Z,63.10
2017-08-18T16:41:10.132Z,62.80
2017-08-18T16:43:37.689Z,63.30
2017-08-18T16:46:05.236Z,63.80
2017-08-18T16:48:33.560Z,64.00
2017-08-18T16:51:01.116Z,63.90
2017-08-18T16:53:28.681Z,64.50
2017-08-18T16:55:56.209Z,64.90
2017-08-18T16:58:23.728Z,64.80
2017-08-18T17:00:51.287Z,64.30
2017-08-18T17:03:18.803Z,64.70
2017-08-18T17:05:46.399Z,65.30
2017-08-18T17:08:13.914Z,65.40
2017-08-18T17:10:41.428Z,65.10
2017-08-18T17:13:09.001Z,66.30
2017-08-18T17:15:36.509Z,66.30
2017-08-18T17:18:04.023Z,66.10
2017-08-18T17:20:31.627Z,66.80
2017-08-18T17:22:59.152Z,66.30
2017-08-18T17:25:26.761Z,66.90
2017-08-18T17:27:54.288Z,68.10
2017-08-18T17:30:21.880Z,67.50
2017-08-18T17:32:49.399Z,67.70
2017-08-18T17:35:16.903Z,68.20
2017-08-18T17:37:44.457Z,68.30
2017-08-18T17:40:11.975Z,68.50
2017-08-18T17:42:40.305Z,69.60
2017-08-18T17:45:07.818Z,69.60
2017-08-18T17:47:35.332Z,70.20
2017-08-18T17:50:02.915Z,70.60
2017-08-18T17:52:30.436Z,70.90
2017-08-18T17:54:57.966Z,71.10
2017-08-18T17:57:25.523Z,70.80
2017-08-18T17:59:53.816Z,71.20
2017-08-18T18:02:21.345Z,71.20
2017-08-18T18:04:49.667Z,72.00
2017-08-18T18:07:17.179Z,72.00
2017-08-18T18:09:45.493Z,71.70
2017-08-18T18:12:13.016Z,72.20
2017-08-18T18:14:41.310Z,73.20
2017-08-18T18:17:09.643Z,75.10
2017-08-18T18:19:37.165Z,75.00
2017-08-18T18:22:04.675Z,77.10
2017-08-18T18:24:32.224Z,77.00
2017-08-18T18:26:59.776Z,78.80
2017-08-18T18:29:27.324Z,80.30
2017-08-18T18:31:54.879Z,80.50
2017-08-18T18:34:22.393Z,82.10
2017-08-18T18:36:50.675Z,84.70
2017-08-18T18:39:19.037Z,85.70
2017-08-18T18:41:46.564Z,85.60
2017-08-18T18:44:14.109Z,85.70
2017-08-18T18:46:41.671Z,86.10
2017-08-18T18:49:09.193Z,86.30
2017-08-18T18:51:37.479Z,86.00
2017-08-18T18:54:05.036Z,86.10
2017-08-18T18:56:33.319Z,80.60
2017-08-18T18:59:00.935Z,80.50
2017-08-18T19:01:28.448Z,78.40
2017-08-18T19:03:56.040Z,79.80
2017-08-18T19:06:23.611Z,81.10
2017-08-18T19:08:51.133Z,82.70
2017-08-18T19:11:18.652Z,87.00
2017-08-18T19:13:46.220Z,88.10
2017-08-18T19:16:14.552Z,91.90
2017-08-18T19:18:42.088Z,91.60
2017-08-18T19:21:09.673Z,91.10
2017-08-18T19:23:37.212Z,92.40
2017-08-18T19:26:04.775Z,92.50
2017-08-18T19:28:32.365Z,93.60
2017-08-18T19:30:59.900Z,93.40
2017-08-18T19:33:27.456Z,93.10
2017-08-18T19:35:54.976Z,93.40
2017-08-18T19:38:22.532Z,93.50
2017-08-18T19:40:50.052Z,92.80
2017-08-18T19:43:17.595Z,93.60
2017-08-18T19:45:45.121Z,93.00
2017-08-18T19:48:12.696Z,93.20
2017-08-18T19:50:40.987Z,94.00
2017-08-18T19:53:08.532Z,94.00
2017-08-18T19:55:36.812Z,94.20
2017-08-18T19:58:04.357Z,94.10
2017-08-18T20:00:31.896Z,93.70
2017-08-18T20:02:59.407Z,94.50
2017-08-18T20:05:26.999Z,94.30
2017-08-18T20:07:54.507Z,94.70
2017-08-18T20:10:22.788Z,94.10
2017-08-18T20:12:51.104Z,93.60
2017-08-18T20:15:18.647Z,93.60
2017-08-18T20:17:46.187Z,93.40
2017-08-18T20:20:14.477Z,94.30
2017-08-18T20:22:42.020Z,94.20
2017-08-18T20:25:10.331Z,94.80
2017-08-18T20:27:37.875Z,94.70
2017-08-18T20:30:05.430Z,94.60
2017-08-18T20:32:32.948Z,94.40
2017-08-18T20:35:00.498Z,94.00
2017-08-18T20:37:28.009Z,94.40
2017-08-18T20:39:56.333Z,94.10
2017-08-18T20:42:23.849Z,94.10
2017-08-18T20:44:51.399Z,93.60
2017-08-18T20:47:19.756Z,95.10
2017-08-18T20:49:47.267Z,95.10
2017-08-18T20:52:14.780Z,95.30
2017-08-18T20:54:42.332Z,94.90
2017-08-18T20:57:09.849Z,94.50
2017-08-18T20:59:37.391Z,94.50
2017-08-18T21:02:04.978Z,94.70
2017-08-18T21:04:32.531Z,95.00
2017-08-18T21:07:00.124Z,96.10
2017-08-18T21:09:27.731Z,96.30
2017-08-18T21:11:55.246Z,95.80
2017-08-18T21:14:22.799Z,95.50
2017-08-18T21:16:50.536Z,95.70
2017-08-18T21:19:18.139Z,95.40
2017-08-18T21:21:45.666Z,95.30
2017-08-18T21:24:13.192Z,95.60
2017-08-18T21:26:41.501Z,95.00
2017-08-18T21:29:09.051Z,95.00
2017-08-18T21:31:36.599Z,95.60
2017-08-18T21:34:04.118Z,95.60
2017-08-18T21:36:31.685Z,95.50
2017-08-18T21:38:59.217Z,95.40
2017-08-18T21:41:26.758Z,96.40
2017-08-18T21:43:54.324Z,96.10
2017-08-18T21:46:21.857Z,95.50
2017-08-18T21:48:49.384Z,95.10
2017-08-18T21:51:17.272Z,95.50
2017-08-18T21:53:45.690Z,95.50
2017-08-18T21:56:13.209Z,95.40
2017-08-18T21:58:41.528Z,96.10
2017-08-18T22:01:09.138Z,96.10
2017-08-18T22:03:37.433Z,95.60
2017-08-18T22:06:05.717Z,95.40
2017-08-18T22:08:33.274Z,95.40
2017-08-18T22:11:00.836Z,96.00
2017-08-18T22:13:28.345Z,95.60
2017-08-18T22:15:55.858Z,96.40
2017-08-18T22:18:23.409Z,95.50
2017-08-18T22:20:50.942Z,96.00
2017-08-18T22:23:18.487Z,96.00
2017-08-18T22:25:46.021Z,95.70
2017-08-18T22:28:13.771Z,96.20
2017-08-18T22:30:41.311Z,95.80
2017-08-18T22:33:09.622Z,96.30
2017-08-18T22:35:37.212Z,96.30
2017-08-18T22:38:04.734Z,95.40
2017-08-18T22:40:32.263Z,95.50
2017-08-18T22:43:00.592Z,96.30
2017-08-18T22:45:28.128Z,95.90
2017-08-18T22:47:55.707Z,95.80
2017-08-18T22:50:23.335Z,96.40
2017-08-18T22:52:50.900Z,95.70
2017-08-18T22:55:18.416Z,95.60
2017-08-18T22:57:45.936Z,95.60
2017-08-18T23:00:13.515Z,95.80
2017-08-18T23:02:41.411Z,97.20
2017-08-18T23:05:09.177Z,96.70
2017-08-18T23:07:36.732Z,96.20
2017-08-18T23:10:04.251Z,95.90
2017-08-18T23:12:31.764Z,95.80
2017-08-18T23:15:00.097Z,96.00
2017-08-18T23:17:27.616Z,96.00
2017-08-18T23:19:55.948Z,96.50
2017-08-18T23:22:23.531Z,96.50
2017-08-18T23:24:51.106Z,96.40
2017-08-18T23:27:18.624Z,96.40
2017-08-18T23:29:46.247Z,97.00
2017-08-18T23:32:14.588Z,96.60
2017-08-18T23:34:42.103Z,96.60
2017-08-18T23:37:09.612Z,96.30
2017-08-18T23:39:37.145Z,96.80
2017-08-18T23:42:04.664Z,97.40
2017-08-18T23:44:33.023Z,96.80
2017-08-18T23:47:00.538Z,96.80
2017-08-18T23:49:28.051Z,96.90
2017-08-18T23:51:56.397Z,97.30
2017-08-18T23:54:23.912Z,97.30
2017-08-18T23:56:51.467Z,97.40
2017-08-18T23:59:19.048Z,96.90
